< < Back
Terminal Aerodrome Forecast


Current Version              Previous Versions:   1  2  3  4  5  6  7  8  9  

Terminal Aerodrome Forecast

231
FTUS42 KILM 301456 AAC
TAFFLO
TAF AMD
KFLO 301456Z 3015/3112 09010KT P6SM VCSH SCT030
      TEMPO 3015/3018 3SM SHRA BKN026
     FM301800 13009KT P6SM VCSH BKN035
      TEMPO 3018/3021 4SM SHRA BKN030
     FM310200 02005KT P6SM VCSH SCT015 OVC025
     FM310600 VRB03KT 6SM BR BKN008=

Latest METAR

269
SAUS70 KWBC 302200
MTRFLO
METAR KFLO 302153Z 16004KT 10SM FEW009 BKN029 OVC039 24/22 A2988 RMK AO2
SLP114 P0001 T02390217


USA.gov is the U.S. government's official web portal to all federal, state and local government web resources and services.